Time;durP1;ratioP1;P1;durP2;ratioP2;P2;SDS_P1;SDS_P2;PMS_P1;PMS_P2;Temp;Humidity;BMP_temperature;BMP_pressure;BME280_temperature;BME280_humidity;BME280_pressure;Samples;Min_cycle;Max_cycle;Signal;HPM_P1;HPM_P2
2021/11/03 00:01:15;;;;;;;6.90;4.00;;;8.00;99.90;;;;;;5025457;28;20578;-73
2021/11/03 00:03:43;;;;;;;5.57;4.30;;;7.90;99.90;;;;;;5025832;28;20207;-73
2021/11/03 00:06:10;;;;;;;7.93;4.97;;;7.80;99.90;;;;;;5015488;28;20552;-73
2021/11/03 00:08:38;;;;;;;6.43;3.87;;;7.80;99.90;;;;;;5029730;28;20562;-73
2021/11/03 00:11:06;;;;;;;7.47;4.57;;;7.70;99.90;;;;;;5030474;28;20214;-73
2021/11/03 00:13:33;;;;;;;5.60;4.57;;;7.70;99.90;;;;;;5031277;28;20203;-73
2021/11/03 00:16:01;;;;;;;6.17;4.13;;;7.60;99.90;;;;;;5029658;28;20662;-73
2021/11/03 00:18:28;;;;;;;6.13;3.97;;;7.60;99.90;;;;;;5031267;28;20210;-73
2021/11/03 00:20:57;;;;;;;6.97;4.13;;;7.50;99.90;;;;;;5017136;28;20205;-73
2021/11/03 00:23:24;;;;;;;6.87;4.50;;;7.40;99.90;;;;;;5019292;28;20231;-74
2021/11/03 00:25:51;;;;;;;7.57;4.20;;;7.50;99.90;;;;;;5027862;28;20220;-73
2021/11/03 00:28:20;;;;;;;8.20;4.90;;;7.40;99.90;;;;;;5030848;28;20652;-73
2021/11/03 00:30:50;;;;;;;7.77;4.87;;;7.50;99.90;;;;;;5029445;28;20554;-73
2021/11/03 00:33:18;;;;;;;6.73;4.70;;;7.50;99.90;;;;;;5023011;28;20200;-73
2021/11/03 00:35:45;;;;;;;6.97;4.57;;;7.50;99.90;;;;;;5010920;28;20196;-73
2021/11/03 00:38:12;;;;;;;6.70;4.30;;;7.60;99.90;;;;;;5015102;28;20216;-74
2021/11/03 00:40:40;;;;;;;6.17;4.17;;;7.70;99.90;;;;;;5010661;28;20218;-73
2021/11/03 00:43:07;;;;;;;5.37;3.97;;;7.70;99.90;;;;;;5015315;28;20672;-73
2021/11/03 00:45:34;;;;;;;6.20;3.93;;;7.80;99.90;;;;;;5010561;28;20230;-73
2021/11/03 00:48:00;;;;;;;6.13;4.20;;;7.90;99.90;;;;;;5024753;28;20208;-73
2021/11/03 00:50:29;;;;;;;5.80;4.13;;;8.00;99.90;;;;;;5017508;28;20208;-73
2021/11/03 00:52:56;;;;;;;7.77;4.27;;;8.00;99.90;;;;;;5025129;28;20585;-73
2021/11/03 00:55:23;;;;;;;6.63;4.57;;;8.00;99.90;;;;;;5026753;28;20206;-73
2021/11/03 00:57:49;;;;;;;5.17;3.90;;;8.00;99.90;;;;;;5023595;28;20208;-73
2021/11/03 01:00:20;;;;;;;6.30;4.77;;;8.00;99.90;;;;;;5024831;28;20658;-73
2021/11/03 01:02:48;;;;;;;4.53;3.70;;;8.00;99.90;;;;;;5027789;28;20210;-73
2021/11/03 01:05:17;;;;;;;6.67;4.00;;;8.10;99.90;;;;;;5025604;28;20207;-73
2021/11/03 01:07:46;;;;;;;4.70;3.80;;;8.10;99.90;;;;;;5026046;28;20693;-73
2021/11/03 01:10:13;;;;;;;5.87;3.97;;;8.10;99.90;;;;;;5010395;28;20196;-73
2021/11/03 01:12:41;;;;;;;6.83;4.60;;;8.10;99.90;;;;;;5018932;28;20195;-73
2021/11/03 01:15:10;;;;;;;6.03;4.43;;;8.10;99.90;;;;;;5026486;28;20566;-73
2021/11/03 01:17:37;;;;;;;5.80;4.17;;;8.00;99.90;;;;;;5018590;28;20677;-73
2021/11/03 01:20:05;;;;;;;6.63;4.70;;;8.00;99.90;;;;;;5021026;28;20651;-73
2021/11/03 01:22:32;;;;;;;7.63;5.00;;;8.00;99.90;;;;;;5016239;28;20204;-73
2021/11/03 01:25:00;;;;;;;6.77;4.67;;;8.00;99.90;;;;;;5019122;28;20695;-73
2021/11/03 01:27:27;;;;;;;7.37;4.57;;;8.00;99.90;;;;;;5029486;28;20223;-73
2021/11/03 01:29:53;;;;;;;7.33;4.00;;;7.90;99.90;;;;;;5029234;28;20214;-73
2021/11/03 01:32:20;;;;;;;6.43;4.50;;;7.90;99.90;;;;;;5023266;28;20207;-73
2021/11/03 01:34:47;;;;;;;6.37;4.50;;;7.80;99.90;;;;;;5027713;28;20204;-73
2021/11/03 01:37:14;;;;;;;5.97;4.30;;;7.60;99.90;;;;;;5028818;28;20664;-73
2021/11/03 01:39:41;;;;;;;6.67;4.53;;;7.50;99.90;;;;;;5028932;28;20200;-73
2021/11/03 01:42:09;;;;;;;6.33;4.80;;;7.40;99.90;;;;;;5026919;28;20200;-73
2021/11/03 01:44:36;;;;;;;9.20;5.20;;;7.20;99.90;;;;;;5030016;28;20558;-73
2021/11/03 01:47:37;;;;;;;8.07;4.73;;;7.10;99.90;;;;;;5023629;28;20584;-73
2021/11/03 01:50:05;;;;;;;6.17;4.40;;;7.00;99.90;;;;;;5029698;28;20302;-73
2021/11/03 01:52:33;;;;;;;8.03;4.87;;;6.90;99.90;;;;;;5015039;28;20203;-73
2021/11/03 01:55:00;;;;;;;7.87;4.90;;;6.90;99.90;;;;;;5016763;28;20203;-73
2021/11/03 01:57:32;;;;;;;7.80;5.30;;;7.00;99.90;;;;;;5028057;28;20203;-73
2021/11/03 02:00:06;;;;;;;8.67;5.30;;;6.90;99.90;;;;;;5019012;28;20632;-73
2021/11/03 02:02:34;;;;;;;8.37;5.33;;;6.90;99.90;;;;;;5022152;28;20226;-73
2021/11/03 02:05:03;;;;;;;9.63;5.60;;;6.90;99.90;;;;;;5015575;28;20207;-73
2021/11/03 02:07:32;;;;;;;10.30;6.10;;;6.90;99.90;;;;;;5029116;28;20234;-73
2021/11/03 02:09:59;;;;;;;8.40;5.50;;;6.90;99.90;;;;;;5028854;28;20200;-73
2021/11/03 02:12:30;;;;;;;9.90;5.90;;;6.80;99.90;;;;;;5027341;28;20213;-73
2021/11/03 02:14:57;;;;;;;8.93;5.93;;;6.80;99.90;;;;;;5011518;28;20562;-73
2021/11/03 02:17:26;;;;;;;10.23;6.83;;;6.80;99.90;;;;;;5026525;28;20560;-73
2021/11/03 02:19:56;;;;;;;10.43;6.37;;;6.70;99.90;;;;;;5013504;28;20208;-73
2021/11/03 02:22:30;;;;;;;10.23;6.60;;;6.80;99.90;;;;;;5027887;28;20208;-73
2021/11/03 02:25:04;;;;;;;11.13;6.20;;;6.80;99.90;;;;;;5009593;28;20212;-73
2021/11/03 02:27:35;;;;;;;11.47;6.53;;;6.70;99.90;;;;;;5009824;28;20581;-73
2021/11/03 02:30:02;;;;;;;11.47;6.87;;;6.60;99.90;;;;;;5012658;28;20380;-73
2021/11/03 02:32:32;;;;;;;12.00;6.80;;;6.60;99.90;;;;;;5009435;28;20238;-73
2021/11/03 02:35:00;;;;;;;11.97;6.97;;;6.50;99.90;;;;;;5009655;28;20208;-73
2021/11/03 02:37:42;;;;;;;14.07;7.07;;;6.60;99.90;;;;;;5009488;28;20196;-73
2021/11/03 02:40:21;;;;;;;13.07;7.53;;;6.80;99.90;;;;;;5015959;28;20208;-73
2021/11/03 02:42:52;;;;;;;10.77;6.33;;;6.70;99.90;;;;;;5014813;28;20291;-73
2021/11/03 02:45:24;;;;;;;11.50;7.07;;;6.70;99.90;;;;;;5010906;28;20205;-73
2021/11/03 02:47:51;;;;;;;11.30;6.83;;;6.70;99.90;;;;;;5022554;28;20231;-73
2021/11/03 02:50:18;;;;;;;11.57;6.63;;;6.60;99.90;;;;;;5027095;28;20204;-73
2021/11/03 02:52:45;;;;;;;11.53;6.93;;;6.70;99.90;;;;;;5026491;28;20204;-73
2021/11/03 02:55:14;;;;;;;11.47;6.53;;;6.70;99.90;;;;;;5008732;28;20210;-73
2021/11/03 02:57:41;;;;;;;13.30;7.17;;;6.50;99.90;;;;;;5014718;28;20200;-73
2021/11/03 03:00:11;;;;;;;11.73;6.90;;;6.30;99.90;;;;;;5019167;28;20200;-73
2021/11/03 03:02:38;;;;;;;12.97;7.37;;;6.20;99.90;;;;;;5032479;28;20204;-73
2021/11/03 03:05:06;;;;;;;11.40;6.70;;;6.00;99.90;;;;;;5030973;28;20203;-73
2021/11/03 03:07:33;;;;;;;12.87;7.47;;;5.90;99.90;;;;;;5031813;28;20219;-73
2021/11/03 03:10:00;;;;;;;12.43;6.80;;;5.90;99.90;;;;;;5030029;28;20211;-73
2021/11/03 03:12:31;;;;;;;12.47;6.93;;;5.80;99.90;;;;;;5018927;28;20639;-73
2021/11/03 03:14:59;;;;;;;12.03;6.47;;;5.80;99.90;;;;;;5029172;28;20282;-73
2021/11/03 03:17:26;;;;;;;10.63;6.17;;;5.70;99.90;;;;;;5030015;28;20206;-73
2021/11/03 03:19:54;;;;;;;10.97;6.43;;;5.60;99.90;;;;;;5016167;28;20216;-73
2021/11/03 03:22:22;;;;;;;11.67;7.03;;;5.70;99.90;;;;;;5018977;28;20216;-73
2021/11/03 03:24:50;;;;;;;12.87;7.50;;;5.70;99.90;;;;;;5016580;28;20253;-73
2021/11/03 03:27:17;;;;;;;10.33;6.70;;;5.70;99.90;;;;;;5030446;28;20220;-73
2021/11/03 03:29:46;;;;;;;13.13;7.37;;;5.60;99.90;;;;;;5012451;28;20219;-73
2021/11/03 03:32:14;;;;;;;13.67;7.27;;;5.70;99.90;;;;;;5018369;28;20561;-73
2021/11/03 03:34:41;;;;;;;12.03;7.37;;;5.70;99.90;;;;;;5025455;28;20623;-73
2021/11/03 03:37:08;;;;;;;10.43;6.90;;;5.50;99.90;;;;;;5015548;28;20200;-73
2021/11/03 03:39:36;;;;;;;12.77;7.23;;;5.50;99.90;;;;;;5012640;28;20250;-73
2021/11/03 03:42:06;;;;;;;13.00;7.70;;;5.50;99.90;;;;;;5013743;28;20223;-73
2021/11/03 03:44:33;;;;;;;13.80;7.53;;;5.50;99.90;;;;;;5028440;28;20203;-73
2021/11/03 03:47:01;;;;;;;11.00;6.70;;;5.50;99.90;;;;;;5027808;28;20216;-73
2021/11/03 03:49:28;;;;;;;15.50;7.47;;;5.30;99.90;;;;;;5027191;28;20204;-73
2021/11/03 03:51:55;;;;;;;12.70;7.30;;;5.30;99.90;;;;;;5022352;28;20208;-73
2021/11/03 03:54:23;;;;;;;13.20;6.90;;;5.30;99.90;;;;;;5013328;28;20654;-73
2021/11/03 03:56:50;;;;;;;16.80;7.93;;;5.30;99.90;;;;;;5018891;28;20207;-73
2021/11/03 03:59:17;;;;;;;12.00;7.93;;;5.10;99.90;;;;;;5030408;28;20294;-72
2021/11/03 04:01:44;;;;;;;14.83;8.80;;;5.00;99.90;;;;;;5025121;28;20664;-73
2021/11/03 04:04:13;;;;;;;12.83;8.03;;;4.80;99.90;;;;;;5031555;28;20211;-73
2021/11/03 04:06:41;;;;;;;12.90;7.40;;;4.40;99.90;;;;;;5017021;28;20226;-73
2021/11/03 04:09:08;;;;;;;15.90;7.53;;;4.60;99.90;;;;;;5011113;28;20209;-73
2021/11/03 04:11:36;;;;;;;11.77;6.80;;;4.50;99.90;;;;;;5019079;28;20216;-72
2021/11/03 04:14:03;;;;;;;14.77;8.07;;;4.40;99.90;;;;;;5012018;28;20247;-73
2021/11/03 04:16:30;;;;;;;11.87;6.93;;;4.40;99.90;;;;;;5022003;28;20192;-73
2021/11/03 04:18:57;;;;;;;14.50;7.50;;;4.50;99.90;;;;;;5023454;28;20222;-73
2021/11/03 04:21:25;;;;;;;13.27;7.80;;;4.40;99.90;;;;;;5031593;28;20254;-72
2021/11/03 04:23:52;;;;;;;20.93;11.13;;;4.50;99.90;;;;;;5031205;28;20208;-72
2021/11/03 04:26:22;;;;;;;14.83;8.17;;;4.40;99.90;;;;;;5030357;28;20590;-73
2021/11/03 04:28:50;;;;;;;13.70;7.53;;;4.50;99.90;;;;;;5031329;28;20212;-72
2021/11/03 04:31:17;;;;;;;12.13;7.10;;;4.40;99.90;;;;;;5030796;28;20717;-72
2021/11/03 04:33:44;;;;;;;13.40;7.80;;;4.50;99.90;;;;;;5030931;28;20207;-73
2021/11/03 04:36:11;;;;;;;13.03;7.23;;;4.40;99.90;;;;;;5029042;28;20214;-72
2021/11/03 04:38:39;;;;;;;13.23;7.23;;;4.40;99.90;;;;;;5030399;28;20214;-72
2021/11/03 04:41:06;;;;;;;13.77;8.00;;;4.50;99.90;;;;;;5030136;28;20564;-73
2021/11/03 04:43:33;;;;;;;14.30;7.90;;;4.50;99.90;;;;;;5030557;28;20208;-72
2021/11/03 04:46:01;;;;;;;15.53;8.13;;;4.50;99.90;;;;;;5030181;28;20200;-73
2021/11/03 04:48:28;;;;;;;12.57;7.47;;;4.50;99.90;;;;;;5030191;28;20223;-72
2021/11/03 04:50:55;;;;;;;14.27;6.73;;;4.20;99.90;;;;;;5030852;28;20215;-73
2021/11/03 04:53:22;;;;;;;13.33;6.80;;;4.20;99.90;;;;;;5030810;28;20325;-72
2021/11/03 04:55:51;;;;;;;11.13;6.20;;;3.80;99.90;;;;;;5030122;28;20571;-72
2021/11/03 04:58:18;;;;;;;12.83;6.33;;;3.60;99.90;;;;;;5030966;28;20211;-72
2021/11/03 05:00:48;;;;;;;12.27;6.03;;;3.60;99.90;;;;;;5029548;28;20558;-72
2021/11/03 05:03:15;;;;;;;12.27;6.60;;;3.60;99.90;;;;;;5029927;28;20212;-73
2021/11/03 05:05:42;;;;;;;11.40;5.77;;;3.70;99.90;;;;;;5030313;28;20214;-72
2021/11/03 05:08:10;;;;;;;11.03;6.37;;;3.70;99.90;;;;;;5030092;28;20220;-73
2021/11/03 05:10:38;;;;;;;11.97;6.03;;;3.80;99.90;;;;;;5030568;28;20663;-72
2021/11/03 05:13:06;;;;;;;12.27;6.57;;;3.80;99.90;;;;;;5030078;28;20204;-72
2021/11/03 05:15:33;;;;;;;13.20;7.13;;;3.80;99.90;;;;;;5030491;28;20214;-72
2021/11/03 05:18:00;;;;;;;15.37;8.10;;;3.90;99.90;;;;;;5029206;28;20203;-72
2021/11/03 05:20:27;;;;;;;16.23;7.83;;;4.20;99.90;;;;;;5029626;28;20204;-73
2021/11/03 05:22:54;;;;;;;17.37;9.27;;;4.30;99.90;;;;;;5029658;28;20214;-73
2021/11/03 05:25:25;;;;;;;20.67;9.20;;;4.50;99.90;;;;;;5030392;28;20219;-73
2021/11/03 05:27:52;;;;;;;15.80;8.90;;;4.50;99.90;;;;;;5028926;28;20219;-73
2021/11/03 05:30:22;;;;;;;16.80;8.70;;;4.40;99.90;;;;;;5030398;28;20207;-72
2021/11/03 05:32:49;;;;;;;16.23;8.77;;;4.40;99.90;;;;;;5030454;28;20218;-72
2021/11/03 05:35:17;;;;;;;14.33;7.40;;;4.40;99.90;;;;;;5029675;28;20220;-73
2021/11/03 05:37:44;;;;;;;12.27;6.80;;;4.30;99.90;;;;;;5029241;28;20207;-73
2021/11/03 05:40:17;;;;;;;18.00;8.23;;;4.00;99.90;;;;;;5029759;28;20314;-72
2021/11/03 05:42:43;;;;;;;16.47;9.07;;;4.00;99.90;;;;;;5029447;28;20218;-73
2021/11/03 05:45:11;;;;;;;14.63;7.80;;;4.00;99.90;;;;;;5030481;28;20200;-72
2021/11/03 05:47:39;;;;;;;14.80;8.13;;;4.00;99.90;;;;;;5028901;28;20234;-73
2021/11/03 05:50:07;;;;;;;15.53;8.07;;;3.90;99.90;;;;;;5029953;28;20216;-72
2021/11/03 05:52:34;;;;;;;14.93;8.40;;;3.90;99.90;;;;;;5029770;28;20203;-72
2021/11/03 05:55:01;;;;;;;16.57;8.77;;;3.90;99.90;;;;;;5028951;28;20203;-72
2021/11/03 05:57:30;;;;;;;14.97;8.17;;;3.90;99.90;;;;;;5029334;28;20207;-72
2021/11/03 05:59:58;;;;;;;15.50;8.33;;;4.00;99.90;;;;;;5030038;28;20212;-73
2021/11/03 06:02:25;;;;;;;14.50;7.83;;;3.90;99.90;;;;;;5030060;28;20654;-73
2021/11/03 06:04:53;;;;;;;15.43;8.07;;;3.80;99.90;;;;;;5028587;28;20212;-73
2021/11/03 06:07:22;;;;;;;13.60;7.47;;;3.90;99.90;;;;;;5029136;28;20216;-72
2021/11/03 06:09:49;;;;;;;15.90;8.70;;;3.80;99.90;;;;;;5029700;28;20257;-72
2021/11/03 06:12:16;;;;;;;19.40;8.93;;;3.70;99.90;;;;;;5028933;28;20211;-73
2021/11/03 06:14:43;;;;;;;14.00;7.80;;;3.60;99.90;;;;;;5029758;28;20677;-72
2021/11/03 06:17:10;;;;;;;16.03;8.57;;;3.50;99.90;;;;;;5028591;28;20204;-72
2021/11/03 06:19:37;;;;;;;14.80;8.17;;;3.40;99.90;;;;;;5029133;28;20200;-73
2021/11/03 06:22:06;;;;;;;15.83;8.40;;;3.50;99.90;;;;;;5029569;28;20208;-73
2021/11/03 06:24:33;;;;;;;21.43;8.83;;;3.50;99.90;;;;;;5127525;27;20206;-73
2021/11/03 06:27:00;;;;;;;19.10;8.90;;;3.60;99.90;;;;;;5131950;27;20625;-73
2021/11/03 06:29:27;;;;;;;16.60;9.40;;;3.50;99.90;;;;;;5038284;27;20208;-73
2021/11/03 06:31:54;;;;;;;14.70;8.10;;;3.40;99.90;;;;;;5028660;28;20577;-73
2021/11/03 06:34:21;;;;;;;15.50;7.93;;;3.30;99.90;;;;;;5029374;28;20562;-73
2021/11/03 06:36:48;;;;;;;15.97;8.70;;;3.40;99.90;;;;;;5028523;28;20196;-73
2021/11/03 06:39:16;;;;;;;16.30;8.40;;;3.40;99.90;;;;;;5029171;28;20563;-73
2021/11/03 06:41:45;;;;;;;15.33;8.67;;;3.40;99.90;;;;;;5028967;28;20579;-72
2021/11/03 06:44:13;;;;;;;17.13;8.47;;;3.50;99.90;;;;;;5029267;28;20208;-73
2021/11/03 06:46:39;;;;;;;15.93;8.97;;;3.60;99.90;;;;;;5027976;28;20209;-73
2021/11/03 06:49:07;;;;;;;15.37;8.50;;;3.50;99.90;;;;;;5029154;28;20326;-73
2021/11/03 06:51:34;;;;;;;17.30;9.07;;;3.60;99.90;;;;;;5028378;28;20208;-73
2021/11/03 06:54:01;;;;;;;15.50;8.20;;;3.50;99.90;;;;;;5029129;28;20212;-73
2021/11/03 06:56:29;;;;;;;15.03;8.63;;;3.60;99.90;;;;;;5028058;28;20271;-72
2021/11/03 06:58:56;;;;;;;15.50;8.03;;;3.80;99.90;;;;;;5028672;28;20235;-73
2021/11/03 07:01:23;;;;;;;15.03;8.53;;;3.90;99.90;;;;;;5028962;28;20535;-73
2021/11/03 07:03:52;;;;;;;17.13;9.00;;;3.90;99.90;;;;;;5028903;28;20203;-73
2021/11/03 07:06:19;;;;;;;14.93;8.23;;;3.80;99.90;;;;;;5027838;28;20215;-73
2021/11/03 07:08:47;;;;;;;16.23;8.00;;;3.80;99.90;;;;;;5028559;28;20242;-73
2021/11/03 07:11:14;;;;;;;17.27;8.50;;;3.80;99.90;;;;;;5028674;28;20276;-73
2021/11/03 07:13:42;;;;;;;17.10;8.50;;;4.00;99.90;;;;;;5028498;28;20212;-73
2021/11/03 07:16:09;;;;;;;16.47;8.27;;;4.10;99.90;;;;;;5027054;28;20320;-73
2021/11/03 07:18:36;;;;;;;15.73;8.50;;;4.20;99.90;;;;;;5027930;28;20208;-73
2021/11/03 07:21:03;;;;;;;17.40;9.10;;;4.40;99.90;;;;;;5028439;28;20215;-73
2021/11/03 07:23:30;;;;;;;17.17;9.10;;;4.50;99.90;;;;;;5029151;28;20637;-73
2021/11/03 07:25:57;;;;;;;17.13;9.33;;;4.70;99.90;;;;;;5027722;28;20204;-73
2021/11/03 07:28:25;;;;;;;16.77;9.07;;;4.80;99.90;;;;;;5028264;28;20227;-73
2021/11/03 07:30:54;;;;;;;16.77;8.97;;;4.90;99.90;;;;;;5028505;28;20215;-73
2021/11/03 07:33:21;;;;;;;17.93;10.03;;;5.20;99.90;;;;;;5028780;28;20609;-72
2021/11/03 07:35:48;;;;;;;16.37;9.47;;;5.40;99.90;;;;;;5027654;28;20208;-73
2021/11/03 07:38:15;;;;;;;17.90;9.60;;;5.50;99.90;;;;;;5028928;28;20210;-72
2021/11/03 07:40:46;;;;;;;18.17;9.90;;;5.60;99.90;;;;;;5027606;28;20220;-73
2021/11/03 07:43:18;;;;;;;19.00;10.37;;;5.60;99.90;;;;;;5028095;28;20219;-73
2021/11/03 07:45:46;;;;;;;19.10;10.63;;;5.70;99.90;;;;;;5031110;28;20234;-72
2021/11/03 07:48:15;;;;;;;19.80;10.43;;;5.90;99.90;;;;;;5030926;28;20235;-73
2021/11/03 07:50:45;;;;;;;19.17;10.63;;;5.90;99.90;;;;;;5031845;28;20240;-73
2021/11/03 07:53:13;;;;;;;21.33;11.13;;;6.00;99.90;;;;;;5031853;28;20204;-73
2021/11/03 07:55:43;;;;;;;18.70;11.37;;;6.00;99.90;;;;;;5030326;28;20195;-73
2021/11/03 07:58:14;;;;;;;19.57;11.30;;;6.10;99.90;;;;;;5031307;28;20214;-73
2021/11/03 08:00:41;;;;;;;19.63;10.53;;;6.10;99.90;;;;;;5030929;28;20233;-73
2021/11/03 08:03:08;;;;;;;18.80;10.60;;;6.10;99.90;;;;;;5031715;28;20210;-73
2021/11/03 08:05:37;;;;;;;17.97;10.20;;;6.20;99.90;;;;;;5031631;28;20574;-72
2021/11/03 08:08:10;;;;;;;18.77;10.77;;;6.20;99.90;;;;;;5031201;28;20578;-73
2021/11/03 08:10:38;;;;;;;19.40;11.13;;;6.30;99.90;;;;;;5031367;28;20218;-73
2021/11/03 08:13:05;;;;;;;19.77;11.27;;;6.40;99.90;;;;;;5030771;28;20212;-73
2021/11/03 08:15:32;;;;;;;19.90;11.93;;;6.40;99.90;;;;;;5031904;28;20677;-73
2021/11/03 08:17:59;;;;;;;23.90;14.30;;;6.50;99.90;;;;;;5030829;28;20285;-73
2021/11/03 08:20:28;;;;;;;25.10;14.33;;;6.60;99.90;;;;;;5031437;28;20561;-73
2021/11/03 08:22:58;;;;;;;21.37;13.53;;;6.60;99.90;;;;;;5031696;28;20203;-73
2021/11/03 08:25:26;;;;;;;22.00;13.20;;;6.60;99.90;;;;;;5031362;28;20207;-73
2021/11/03 08:27:53;;;;;;;24.27;15.20;;;6.70;99.90;;;;;;5030091;28;20318;-73
2021/11/03 08:30:20;;;;;;;22.73;14.23;;;6.80;99.90;;;;;;5031455;28;20207;-73
2021/11/03 08:32:51;;;;;;;22.30;13.77;;;6.80;99.90;;;;;;5030546;28;20223;-73
2021/11/03 08:35:21;;;;;;;23.20;14.47;;;6.90;99.90;;;;;;5031371;28;20574;-73
2021/11/03 08:37:50;;;;;;;22.80;13.37;;;7.00;99.90;;;;;;5030420;28;20619;-73
2021/11/03 08:40:21;;;;;;;24.10;13.57;;;7.00;99.90;;;;;;5031086;28;20215;-73
2021/11/03 08:42:50;;;;;;;34.40;13.53;;;7.10;99.90;;;;;;5031012;28;20215;-73
2021/11/03 08:45:17;;;;;;;22.50;13.43;;;7.10;99.90;;;;;;5031317;28;20211;-73
2021/11/03 08:47:45;;;;;;;23.27;13.10;;;7.10;99.90;;;;;;5029242;28;20210;-73
2021/11/03 08:50:15;;;;;;;23.30;14.00;;;7.20;99.90;;;;;;5059878;27;20208;-73
2021/11/03 08:52:43;;;;;;;25.63;14.37;;;7.30;99.90;;;;;;5030687;28;20676;-73
2021/11/03 08:55:10;;;;;;;23.53;13.63;;;7.40;99.90;;;;;;5030457;28;20211;-73
2021/11/03 08:57:39;;;;;;;23.73;14.47;;;7.50;99.90;;;;;;5030121;28;20207;-73
2021/11/03 09:00:10;;;;;;;24.00;13.80;;;7.50;99.90;;;;;;5030071;28;20215;-73
2021/11/03 09:02:37;;;;;;;26.37;14.17;;;7.60;99.90;;;;;;5030669;28;20204;-73
2021/11/03 09:05:05;;;;;;;24.00;14.33;;;7.70;99.90;;;;;;5029656;28;20211;-73
2021/11/03 09:07:33;;;;;;;22.67;13.93;;;7.70;99.90;;;;;;5030348;28;20274;-73
2021/11/03 09:10:00;;;;;;;26.33;14.77;;;7.80;99.90;;;;;;5029585;28;20296;-73
2021/11/03 09:12:27;;;;;;;22.93;13.73;;;7.80;99.90;;;;;;5029595;28;20569;-73
2021/11/03 09:14:56;;;;;;;21.17;13.13;;;7.90;99.90;;;;;;5030830;28;20208;-73
2021/11/03 09:17:25;;;;;;;21.67;13.87;;;8.00;99.90;;;;;;5029726;28;20208;-73
2021/11/03 09:19:53;;;;;;;21.00;13.33;;;8.10;99.90;;;;;;5030864;28;20204;-73
2021/11/03 09:22:19;;;;;;;20.90;12.97;;;8.20;99.90;;;;;;5030296;28;20705;-73
2021/11/03 09:24:46;;;;;;;21.43;13.03;;;8.30;99.90;;;;;;5029720;28;20206;-73
2021/11/03 09:27:14;;;;;;;21.07;12.80;;;8.40;99.90;;;;;;5029040;28;20208;-73
2021/11/03 09:29:43;;;;;;;21.17;12.93;;;8.40;99.90;;;;;;5030440;28;20275;-73
2021/11/03 09:32:14;;;;;;;23.60;13.87;;;8.40;99.90;;;;;;5029942;28;20577;-72
2021/11/03 09:34:41;;;;;;;22.33;13.37;;;8.50;99.90;;;;;;5030454;28;20207;-73
2021/11/03 09:37:09;;;;;;;21.50;12.60;;;8.60;99.90;;;;;;5029283;28;20207;-73
2021/11/03 09:39:36;;;;;;;22.27;13.33;;;8.60;99.90;;;;;;5029967;28;20203;-73
2021/11/03 09:42:03;;;;;;;20.23;12.40;;;8.60;99.90;;;;;;5029260;28;20662;-72
2021/11/03 09:44:34;;;;;;;23.17;13.83;;;8.60;99.90;;;;;;5030061;28;20208;-73
2021/11/03 09:47:16;;;;;;;19.97;13.37;;;8.70;99.90;;;;;;5028618;28;20210;-73
2021/11/03 09:49:50;;;;;;;20.77;13.13;;;8.70;99.90;;;;;;5030345;28;20314;-73
2021/11/03 09:52:22;;;;;;;20.67;12.20;;;8.80;99.90;;;;;;5008970;28;20294;-81
2021/11/03 09:54:55;;;;;;;19.37;11.77;;;9.00;99.90;;;;;;5009752;28;20369;-81
2021/11/03 09:57:29;;;;;;;19.00;11.47;;;9.00;99.90;;;;;;5015974;28;20631;-81
2021/11/03 10:00:07;;;;;;;19.07;11.07;;;9.00;99.90;;;;;;5029973;28;20210;-81
2021/11/03 10:02:44;;;;;;;18.13;11.13;;;9.10;99.90;;;;;;5029521;28;20555;-81
2021/11/03 10:05:25;;;;;;;17.30;10.33;;;9.00;99.90;;;;;;5030067;28;20208;-82
2021/11/03 10:07:56;;;;;;;16.80;10.70;;;9.20;99.90;;;;;;5028146;28;20243;-82
2021/11/03 10:10:31;;;;;;;17.63;10.30;;;9.20;99.90;;;;;;5029827;28;20569;-81
2021/11/03 10:12:58;;;;;;;17.33;10.50;;;9.20;99.90;;;;;;5029167;28;20199;-81
2021/11/03 10:15:26;;;;;;;18.63;11.87;;;9.20;99.90;;;;;;5029491;28;20572;-81
2021/11/03 10:18:14;;;;;;;17.50;10.50;;;9.30;99.90;;;;;;5028604;28;20211;-81
2021/11/03 10:20:46;;;;;;;19.20;11.43;;;9.30;99.90;;;;;;5029910;28;20298;-81
2021/11/03 10:23:20;;;;;;;20.00;11.47;;;9.40;99.90;;;;;;5029619;28;20203;-81
2021/11/03 10:25:49;;;;;;;19.63;11.17;;;9.40;99.90;;;;;;5029313;28;20207;-81
2021/11/03 10:28:31;;;;;;;22.67;12.93;;;9.40;99.90;;;;;;5028726;28;20220;-81
2021/11/03 10:30:58;;;;;;;21.67;12.33;;;9.40;99.90;;;;;;5029597;28;20288;-81
2021/11/03 10:33:32;;;;;;;21.27;13.43;;;9.40;99.90;;;;;;5028888;28;20577;-81
2021/11/03 10:36:04;;;;;;;22.53;13.40;;;9.40;99.90;;;;;;5029538;28;20207;-81
2021/11/03 10:38:41;;;;;;;20.63;12.23;;;9.40;99.90;;;;;;5028852;28;20207;-80
2021/11/03 10:41:19;;;;;;;20.50;12.67;;;9.40;99.90;;;;;;5029563;28;20551;-81
2021/11/03 10:43:59;;;;;;;21.10;13.27;;;9.50;99.90;;;;;;5029409;28;20211;-81
2021/11/03 10:46:31;;;;;;;19.33;11.90;;;9.50;99.90;;;;;;5029037;28;20576;-81
2021/11/03 10:49:14;;;;;;;19.33;12.13;;;9.50;99.90;;;;;;5028562;28;20224;-81
2021/11/03 10:51:44;;;;;;;18.60;10.93;;;9.70;99.90;;;;;;5029246;28;20600;-81
2021/11/03 10:54:13;;;;;;;20.03;12.37;;;9.70;99.90;;;;;;5028947;28;20209;-81
2021/11/03 10:56:50;;;;;;;18.23;11.00;;;9.80;99.90;;;;;;5028517;28;20205;-81
2021/11/03 10:59:28;;;;;;;17.60;10.87;;;9.80;99.90;;;;;;5029438;28;20229;-81
2021/11/03 11:01:56;;;;;;;19.47;11.60;;;9.80;99.90;;;;;;5044033;28;20204;-81
2021/11/03 11:04:32;;;;;;;18.43;10.97;;;9.90;99.90;;;;;;5133434;28;20200;-81
2021/11/03 11:07:06;;;;;;;16.10;10.17;;;9.90;99.90;;;;;;5115501;28;20233;-81
2021/11/03 11:09:37;;;;;;;18.13;10.10;;;10.00;99.90;;;;;;5029093;28;20582;-81
2021/11/03 11:12:22;;;;;;;16.33;9.63;;;10.10;99.90;;;;;;5028823;28;20212;-81
2021/11/03 11:14:50;;;;;;;14.90;8.83;;;10.20;99.90;;;;;;5029135;28;20210;-80
2021/11/03 11:17:24;;;;;;;15.23;8.93;;;10.10;99.90;;;;;;5027736;28;20240;-81
2021/11/03 11:20:07;;;;;;;14.93;9.10;;;10.20;99.90;;;;;;5032785;28;20560;-81
2021/11/03 11:22:59;;;;;;;13.23;9.07;;;10.30;99.90;;;;;;5031580;28;20611;-81
2021/11/03 11:25:36;;;;;;;16.50;9.30;;;10.30;99.90;;;;;;5034555;28;20206;-81
2021/11/03 11:28:13;;;;;;;14.03;9.03;;;10.30;99.90;;;;;;5031610;28;20600;-81
2021/11/03 11:30:48;;;;;;;14.30;9.00;;;10.30;99.90;;;;;;5032203;28;20218;-81
2021/11/03 11:33:24;;;;;;;13.53;8.63;;;10.20;99.90;;;;;;5032241;28;20471;-81
2021/11/03 11:36:07;;;;;;;13.43;7.83;;;10.30;99.90;;;;;;5031689;28;20207;-81
2021/11/03 11:38:44;;;;;;;11.30;7.67;;;10.20;99.90;;;;;;5031919;28;20214;-81
2021/11/03 11:41:17;;;;;;;12.47;7.70;;;10.20;99.90;;;;;;5031521;28;20211;-81
2021/11/03 11:43:48;;;;;;;11.67;7.30;;;10.20;99.90;;;;;;5031294;28;20238;-81
2021/11/03 11:46:20;;;;;;;11.40;7.30;;;10.10;99.90;;;;;;5030889;28;20208;-81
2021/11/03 11:48:52;;;;;;;10.80;7.27;;;10.20;99.90;;;;;;5031586;28;20231;-81
2021/11/03 11:51:25;;;;;;;14.87;8.23;;;10.20;99.90;;;;;;5032039;28;20683;-81
2021/11/03 11:54:24;;;;;;;12.93;8.00;;;10.30;99.90;;;;;;5031835;28;20229;-81
2021/11/03 11:57:23;;;;;;;13.87;8.20;;;10.30;99.90;;;;;;5030546;28;20204;-81
2021/11/03 12:00:17;;;;;;;12.60;8.17;;;10.40;99.90;;;;;;5031713;28;20203;-81
2021/11/03 12:03:04;;;;;;;14.57;7.97;;;10.40;99.90;;;;;;5032024;28;20235;-81
2021/11/03 12:05:49;;;;;;;16.67;8.60;;;10.40;99.90;;;;;;5031567;28;20212;-81
2021/11/03 12:08:23;;;;;;;13.73;8.03;;;10.40;99.90;;;;;;5031671;28;20218;-81
2021/11/03 12:11:18;;;;;;;13.50;7.97;;;10.50;99.90;;;;;;5031176;28;20230;-81
2021/11/03 12:14:24;;;;;;;11.90;7.63;;;10.40;99.90;;;;;;5031417;28;20247;-81
2021/11/03 12:17:00;;;;;;;13.63;8.63;;;10.40;99.90;;;;;;5030499;28;21414;-81
2021/11/03 12:19:51;;;;;;;14.50;9.17;;;10.40;99.90;;;;;;5030802;28;20537;-81
2021/11/03 12:22:21;;;;;;;14.43;8.90;;;10.40;99.90;;;;;;5031440;28;20208;-81
2021/11/03 12:24:50;;;;;;;13.93;8.13;;;10.40;99.90;;;;;;5030475;28;20203;-80
2021/11/03 12:27:36;;;;;;;14.80;9.43;;;10.40;99.90;;;;;;5030858;28;20672;-81
2021/11/03 12:30:34;;;;;;;14.93;8.93;;;10.40;99.90;;;;;;5030687;28;20224;-81
2021/11/03 12:33:05;;;;;;;11.80;7.33;;;10.40;99.90;;;;;;5030846;28;20212;-81
2021/11/03 12:36:11;;;;;;;13.00;7.70;;;10.40;99.90;;;;;;5031057;28;20211;-81
2021/11/03 12:38:59;;;;;;;13.90;8.47;;;10.40;99.90;;;;;;5031279;28;20246;-81
2021/11/03 12:41:42;;;;;;;16.17;7.90;;;10.40;99.90;;;;;;5030626;28;20234;-81
2021/11/03 12:44:13;;;;;;;13.13;8.40;;;10.40;99.90;;;;;;5031612;28;20657;-81
2021/11/03 12:46:40;;;;;;;13.13;8.27;;;10.40;99.90;;;;;;5030030;28;20592;-81
2021/11/03 12:49:14;;;;;;;13.93;8.60;;;10.40;99.90;;;;;;5031181;28;20219;-81
2021/11/03 12:51:50;;;;;;;12.97;8.50;;;10.30;99.90;;;;;;5030615;28;20264;-81
2021/11/03 12:54:20;;;;;;;15.43;9.50;;;10.30;99.90;;;;;;5056098;27;20210;-80
2021/11/03 12:56:58;;;;;;;13.77;8.73;;;10.40;99.90;;;;;;5038479;27;20208;-81
2021/11/03 12:59:29;;;;;;;14.03;8.47;;;10.40;99.90;;;;;;5034546;27;20200;-80
2021/11/03 13:01:59;;;;;;;15.57;8.97;;;10.40;99.90;;;;;;5030614;28;20231;-80